Time;durP1;ratioP1;P1;durP2;ratioP2;P2;SDS_P1;SDS_P2;PMS_P1;PMS_P2;Temp;Humidity;BMP_temperature;BMP_pressure;BME280_temperature;BME280_humidity;BME280_pressure;Samples;Min_cycle;Max_cycle;Signal;HPM_P1;HPM_P2
2022/07/30 00:00:36;;;;;;;4.03;3.73;;;;;;;18.38;75.87;98806.47;5092586;28;41050;-73
2022/07/30 00:03:05;;;;;;;3.57;3.27;;;;;;;18.38;76.11;98815.34;5091742;28;42674;-77
2022/07/30 00:05:33;;;;;;;3.73;3.43;;;;;;;18.39;76.13;98821.56;5091267;28;42563;-77
2022/07/30 00:08:01;;;;;;;3.60;3.30;;;;;;;18.38;76.10;98812.66;5092904;28;42555;-76
2022/07/30 00:10:29;;;;;;;5.17;4.63;;;;;;;18.37;76.29;98819.00;5090964;28;40514;-77
2022/07/30 00:12:57;;;;;;;5.17;4.63;;;;;;;18.36;77.62;98822.69;5091522;28;41854;-77
2022/07/30 00:15:24;;;;;;;3.87;3.57;;;;;;;18.32;76.87;98818.59;5091191;28;44881;-75
2022/07/30 00:17:53;;;;;;;4.40;3.60;;;;;;;18.30;76.99;98826.78;5091347;28;42765;-74
2022/07/30 00:20:21;;;;;;;4.70;4.30;;;;;;;18.29;76.55;98826.94;5092276;28;41390;-76
2022/07/30 00:22:49;;;;;;;4.23;3.87;;;;;;;18.29;76.58;98832.31;5091471;28;42397;-72
2022/07/30 00:25:18;;;;;;;3.60;3.30;;;;;;;18.27;76.34;98840.50;5091166;28;43560;-74
2022/07/30 00:27:46;;;;;;;3.40;3.10;;;;;;;18.28;76.23;98830.63;5090738;28;41446;-74
2022/07/30 00:30:14;;;;;;;3.70;3.40;;;;;;;18.27;76.00;98835.13;5091389;28;39924;-77
2022/07/30 00:32:44;;;;;;;4.40;4.00;;;;;;;18.24;75.91;98842.63;5075227;28;40625;-75
2022/07/30 00:35:13;;;;;;;3.97;3.67;;;;;;;18.20;76.13;98843.88;5074338;28;44255;-77
2022/07/30 00:37:41;;;;;;;4.50;3.40;;;;;;;18.15;76.09;98838.97;5074635;28;44164;-75
2022/07/30 00:40:10;;;;;;;4.00;3.70;;;;;;;18.12;76.10;98839.25;5074591;28;40067;-78
2022/07/30 00:42:40;;;;;;;3.60;3.30;;;;;;;18.08;76.11;98845.88;5091545;28;42626;-79
2022/07/30 00:45:09;;;;;;;4.20;3.67;;;;;;;18.06;76.52;98853.22;5091075;28;42660;-75
2022/07/30 00:47:37;;;;;;;4.63;3.60;;;;;;;18.01;76.66;98847.44;5074349;28;41706;-77
2022/07/30 00:50:07;;;;;;;4.50;4.10;;;;;;;18.01;76.57;98852.81;5090990;28;40086;-78
2022/07/30 00:52:38;;;;;;;3.90;3.60;;;;;;;17.98;76.47;98852.25;5092348;28;41613;-75
2022/07/30 00:55:07;;;;;;;4.07;3.67;;;;;;;17.93;76.60;98844.63;5074478;28;41858;-77
2022/07/30 00:57:35;;;;;;;3.90;3.60;;;;;;;17.93;76.58;98855.34;5091340;28;42183;-75
2022/07/30 01:00:04;;;;;;;3.87;3.53;;;;;;;17.90;76.19;98853.81;5091106;28;40027;-77
2022/07/30 01:02:32;;;;;;;4.93;4.30;;;;;;;17.88;76.15;98862.97;5074329;28;42175;-79
2022/07/30 01:05:00;;;;;;;3.73;3.43;;;;;;;17.85;75.99;98844.50;5073816;28;42157;-74
2022/07/30 01:07:27;;;;;;;4.13;3.73;;;;;;;17.86;76.06;98851.53;5091900;28;42231;-78
2022/07/30 01:09:57;;;;;;;3.97;3.67;;;;;;;17.88;76.19;98854.94;5073417;28;40995;-78
2022/07/30 01:12:26;;;;;;;4.00;3.70;;;;;;;17.83;76.15;98849.16;5074119;28;41045;-74
2022/07/30 01:14:57;;;;;;;3.30;3.00;;;;;;;17.82;76.16;98850.13;5073524;28;41654;-75
2022/07/30 01:17:25;;;;;;;2.83;2.63;;;;;;;17.92;75.76;98859.88;5087655;28;42495;-72
2022/07/30 01:19:58;;;;;;;3.70;3.40;;;;;;;17.96;76.27;98860.41;5090378;28;40903;-74
2022/07/30 01:22:39;;;;;;;3.53;3.23;;;;;;;18.01;75.98;98866.22;5087567;28;41908;-76
2022/07/30 01:25:15;;;;;;;3.37;3.07;;;;;;;18.03;75.75;98868.75;5088872;28;42857;-75
2022/07/30 01:27:48;;;;;;;4.40;4.00;;;;;;;18.05;76.04;98858.75;5073778;28;42214;-74
2022/07/30 01:30:20;;;;;;;4.33;3.93;;;;;;;18.03;75.63;98864.25;5090161;28;40292;-75
2022/07/30 01:32:51;;;;;;;3.83;3.50;;;;;;;18.06;75.51;98866.59;5090431;28;41180;-74
2022/07/30 01:35:21;;;;;;;4.30;3.90;;;;;;;18.07;75.85;98860.25;5072975;28;43049;-75
2022/07/30 01:37:52;;;;;;;3.80;3.40;;;;;;;18.08;75.34;98853.91;5091770;28;42046;-76
2022/07/30 01:40:22;;;;;;;4.23;3.83;;;;;;;18.10;75.28;98865.34;5092639;28;39928;-74
2022/07/30 01:42:54;;;;;;;4.30;3.60;;;;;;;18.12;75.24;98863.38;5093933;28;43054;-72
2022/07/30 01:45:23;;;;;;;3.93;3.63;;;;;;;18.12;74.94;98858.00;5092695;28;43653;-75
2022/07/30 01:47:53;;;;;;;4.33;3.90;;;;;;;18.09;75.12;98854.75;5093819;28;42082;-76
2022/07/30 01:50:22;;;;;;;4.23;3.83;;;;;;;18.09;75.16;98860.13;5093452;28;40043;-74
2022/07/30 01:52:52;;;;;;;3.83;3.53;;;;;;;18.08;75.13;98867.31;5094216;28;41847;-74
2022/07/30 01:55:25;;;;;;;5.07;4.57;;;;;;;18.07;75.36;98862.94;5093568;28;42691;-75
2022/07/30 01:57:56;;;;;;;4.40;4.00;;;;;;;18.06;75.57;98847.84;5091868;28;42087;-73
2022/07/30 02:00:26;;;;;;;5.73;5.17;;;;;;;18.03;76.61;98848.16;5076191;28;40283;-74
2022/07/30 02:02:54;;;;;;;5.43;4.93;;;;;;;18.00;76.30;98843.09;5093958;28;41420;-75
2022/07/30 02:05:22;;;;;;;5.33;4.83;;;;;;;17.97;76.14;98853.22;5093242;28;42773;-77
2022/07/30 02:07:59;;;;;;;4.57;4.13;;;;;;;17.90;76.50;98855.66;5093513;28;42897;-74
2022/07/30 02:10:33;;;;;;;5.40;4.90;;;;;;;17.85;76.34;98863.25;5093206;28;40885;-73
2022/07/30 02:13:06;;;;;;;4.77;4.30;;;;;;;17.81;76.17;98859.16;5090460;28;41709;-74
2022/07/30 02:15:42;;;;;;;4.63;4.23;;;;;;;17.76;75.91;98867.63;5092224;28;43703;-75
2022/07/30 02:18:15;;;;;;;4.60;4.20;;;;;;;17.74;76.11;98868.75;5093373;28;40907;-75
2022/07/30 02:20:45;;;;;;;5.60;4.73;;;;;;;17.73;76.42;98856.34;5076182;28;41436;-75
2022/07/30 02:23:16;;;;;;;5.17;4.67;;;;;;;17.71;76.51;98859.16;5076303;28;40584;-74
2022/07/30 02:25:49;;;;;;;5.07;4.67;;;;;;;17.68;76.37;98853.25;5093099;28;42767;-74
2022/07/30 02:28:21;;;;;;;5.03;4.43;;;;;;;17.63;76.32;98860.81;5090588;28;42428;-73
2022/07/30 02:30:53;;;;;;;4.50;4.10;;;;;;;17.58;76.33;98859.41;5092630;28;39724;-78
2022/07/30 02:33:26;;;;;;;4.50;4.10;;;;;;;17.53;76.44;98861.66;5077062;28;41444;-76
2022/07/30 02:35:55;;;;;;;5.03;4.57;;;;;;;17.50;76.22;98861.94;5076353;28;41997;-76
2022/07/30 02:38:26;;;;;;;3.87;3.50;;;;;;;17.47;76.38;98864.88;5076204;28;42348;-74
2022/07/30 02:40:58;;;;;;;3.93;3.53;;;;;;;17.45;76.25;98864.19;5093628;28;39841;-78
2022/07/30 02:43:29;;;;;;;4.37;3.97;;;;;;;17.47;76.28;98869.41;5076502;28;40622;-73
2022/07/30 02:45:59;;;;;;;4.23;3.90;;;;;;;17.48;76.13;98863.06;5075816;28;41691;-76
2022/07/30 02:48:42;;;;;;;4.10;3.80;;;;;;;17.44;76.12;98851.78;5075451;28;42942;-77
2022/07/30 02:51:12;;;;;;;3.80;3.50;;;;;;;17.51;76.04;98863.63;5075018;28;42625;-77
2022/07/30 02:53:43;;;;;;;4.17;3.77;;;;;;;17.52;75.65;98870.69;5093256;28;41624;-77
2022/07/30 02:56:12;;;;;;;4.03;3.53;;;;;;;17.52;76.10;98878.72;5076072;28;42621;-76
2022/07/30 02:58:45;;;;;;;4.47;4.07;;;;;;;17.54;75.67;98881.25;5089788;28;42190;-73
2022/07/30 03:01:16;;;;;;;4.73;4.33;;;;;;;17.53;75.80;98877.75;5093083;28;39710;-77
2022/07/30 03:03:45;;;;;;;4.57;4.17;;;;;;;17.57;75.96;98884.47;5092990;28;41589;-74
2022/07/30 03:06:15;;;;;;;4.50;4.10;;;;;;;17.57;76.47;98879.13;5092166;28;42757;-78
2022/07/30 03:08:44;;;;;;;4.47;4.07;;;;;;;17.48;76.44;98863.06;5089870;28;42242;-73
2022/07/30 03:11:16;;;;;;;5.27;4.77;;;;;;;17.58;76.35;98883.50;5075733;28;40054;-73
2022/07/30 03:13:45;;;;;;;4.70;4.30;;;;;;;17.57;76.65;98881.81;5090411;28;42596;-74
2022/07/30 03:16:15;;;;;;;5.40;4.83;;;;;;;17.60;76.55;98873.50;5092289;28;42595;-77
2022/07/30 03:18:45;;;;;;;5.63;5.13;;;;;;;17.64;77.38;98879.47;5092477;28;42094;-74
2022/07/30 03:21:15;;;;;;;5.60;4.87;;;;;;;17.67;77.34;98878.34;5075164;28;41445;-75
2022/07/30 03:23:46;;;;;;;5.30;4.80;;;;;;;17.67;77.24;98884.56;5075417;28;40898;-74
2022/07/30 03:26:16;;;;;;;5.37;4.87;;;;;;;17.67;77.47;98892.59;5075159;28;42015;-73
2022/07/30 03:28:47;;;;;;;5.73;5.23;;;;;;;17.66;77.19;98898.94;5092311;28;42439;-75
2022/07/30 03:31:17;;;;;;;8.30;6.67;;;;;;;17.65;77.66;98891.88;5093576;28;39981;-75
2022/07/30 03:33:47;;;;;;;6.47;5.87;;;;;;;17.69;77.66;98897.78;5092640;28;42445;-73
2022/07/30 03:36:16;;;;;;;8.90;8.00;;;;;;;17.72;77.82;98902.84;5093290;28;42669;-74
2022/07/30 03:38:45;;;;;;;10.70;9.60;;;;;;;17.75;78.00;98902.59;5092020;28;43252;-76
2022/07/30 03:41:14;;;;;;;11.37;9.07;;;;;;;17.75;78.65;98897.22;5074984;28;40925;-76
2022/07/30 03:43:47;;;;;;;11.47;8.83;;;;;;;17.82;78.89;98898.34;5075612;28;42095;-75
2022/07/30 03:46:17;;;;;;;10.87;9.83;;;;;;;17.84;78.99;98896.38;5092017;28;42464;-77
2022/07/30 03:48:49;;;;;;;9.37;8.47;;;;;;;17.85;79.04;98895.41;5089252;28;42388;-73
2022/07/30 03:51:17;;;;;;;8.57;7.67;;;;;;;17.87;79.05;98902.31;5092240;28;39915;-77
2022/07/30 03:53:45;;;;;;;9.10;7.77;;;;;;;17.89;79.03;98915.56;5093151;28;41806;-77
2022/07/30 03:56:33;;;;;;;9.03;8.13;;;;;;;17.90;79.09;98914.59;5090413;28;42790;-72
2022/07/30 03:59:13;;;;;;;8.87;7.97;;;;;;;17.95;78.99;98917.69;5075292;28;43672;-75
2022/07/30 04:01:41;;;;;;;8.80;8.00;;;;;;;18.00;79.44;98918.13;5089107;28;40964;-77
2022/07/30 04:04:35;;;;;;;7.03;6.43;;;;;;;18.05;78.98;98920.38;5075737;28;42380;-72
2022/07/30 04:07:03;;;;;;;9.30;7.57;;;;;;;18.10;79.05;98918.09;5092154;28;42445;-76
2022/07/30 04:09:31;;;;;;;8.33;7.03;;;;;;;18.16;78.92;98917.56;5074438;28;41082;-76
2022/07/30 04:12:12;;;;;;;9.17;8.27;;;;;;;18.21;79.74;98926.84;5075264;28;40317;-74
2022/07/30 04:14:44;;;;;;;9.10;8.20;;;;;;;18.26;79.20;98935.31;5074484;28;40833;-77
2022/07/30 04:17:18;;;;;;;8.80;7.90;;;;;;;18.30;78.84;98931.34;5088825;28;42734;-72
2022/07/30 04:19:51;;;;;;;8.30;7.40;;;;;;;18.36;78.81;98926.41;5089354;28;42317;-75
2022/07/30 04:22:23;;;;;;;7.83;6.97;;;;;;;18.38;78.44;98921.75;5074599;28;39122;-74
2022/07/30 04:24:52;;;;;;;6.93;6.23;;;;;;;18.42;78.38;98928.53;5091436;28;42192;-78
2022/07/30 04:27:20;;;;;;;7.07;6.27;;;;;;;18.47;78.21;98934.28;5091580;28;43346;-81
2022/07/30 04:29:51;;;;;;;8.20;7.40;;;;;;;18.47;79.00;98932.47;5091048;28;42168;-74
2022/07/30 04:32:19;;;;;;;7.67;6.97;;;;;;;18.49;78.47;98932.31;5075043;28;39764;-88
2022/07/30 04:35:11;;;;;;;6.30;5.70;;;;;;;18.52;78.42;98934.72;5075061;28;41792;-79
2022/07/30 04:37:59;;;;;;;7.97;7.17;;;;;;;18.56;78.70;98941.47;5091601;28;43121;-79
2022/07/30 04:40:26;;;;;;;6.10;5.57;;;;;;;18.59;78.49;98951.94;5091616;28;42453;-80
2022/07/30 04:42:54;;;;;;;5.60;5.10;;;;;;;18.63;78.31;98942.63;5091786;28;40628;-72
2022/07/30 04:45:24;;;;;;;6.20;5.60;;;;;;;18.68;78.23;98943.03;5091441;28;41510;-77
2022/07/30 04:47:55;;;;;;;6.77;6.17;;;;;;;18.72;78.47;98939.06;5074770;28;42817;-76
2022/07/30 04:50:28;;;;;;;5.57;5.07;;;;;;;18.76;78.14;98943.16;5091090;28;41953;-81
2022/07/30 04:52:58;;;;;;;6.63;5.90;;;;;;;18.78;78.16;98946.56;5091826;28;39241;-76
2022/07/30 04:55:29;;;;;;;5.43;4.93;;;;;;;18.81;77.96;98940.88;5073747;28;40979;-71
2022/07/30 04:57:57;;;;;;;5.50;5.00;;;;;;;18.83;77.92;98949.63;5090689;28;42783;-73
2022/07/30 05:00:28;;;;;;;5.50;5.00;;;;;;;18.81;78.18;98946.25;5090541;28;42717;-73
2022/07/30 05:02:57;;;;;;;5.03;4.60;;;;;;;18.75;77.98;98952.22;5090895;28;39736;-74
2022/07/30 05:05:26;;;;;;;5.30;4.80;;;;;;;18.71;78.35;98961.53;5090331;28;41844;-75
2022/07/30 05:07:57;;;;;;;5.37;4.87;;;;;;;18.64;78.94;98963.94;5073792;28;42972;-73
2022/07/30 05:10:25;;;;;;;4.50;4.10;;;;;;;18.62;78.74;98957.03;5090154;28;42113;-71
2022/07/30 05:12:53;;;;;;;4.33;3.93;;;;;;;18.62;78.54;98967.75;5073212;28;38950;-75
2022/07/30 05:15:22;;;;;;;5.07;4.67;;;;;;;18.61;78.79;98966.91;5073333;28;42063;-71
2022/07/30 05:17:52;;;;;;;5.07;4.57;;;;;;;18.63;78.71;98970.31;5073480;28;41218;-72
2022/07/30 05:20:20;;;;;;;4.87;4.47;;;;;;;18.67;78.74;98972.72;5089672;28;43222;-70
2022/07/30 05:23:08;;;;;;;4.30;4.00;;;;;;;18.67;78.80;98970.84;5089489;28;39650;-74
2022/07/30 05:25:39;;;;;;;5.27;4.77;;;;;;;18.71;78.94;98966.03;5072648;28;40428;-71
2022/07/30 05:28:29;;;;;;;4.60;4.20;;;;;;;18.79;78.90;98964.31;5091088;28;43708;-72
2022/07/30 05:31:00;;;;;;;5.63;3.83;;;;;;;18.84;78.93;98966.56;5089802;28;43347;-72
2022/07/30 05:33:30;;;;;;;4.43;4.03;;;;;;;18.88;78.95;98970.69;5090287;28;39901;-73
2022/07/30 05:35:59;;;;;;;4.50;4.10;;;;;;;18.78;78.81;98948.38;5072687;28;40656;-73
2022/07/30 05:38:27;;;;;;;4.73;4.33;;;;;;;18.90;78.40;98977.59;5073209;28;42139;-74
2022/07/30 05:41:33;;;;;;;4.10;3.80;;;;;;;18.80;78.55;98959.81;5031851;28;41651;-72
2022/07/30 05:44:11;;;;;;;4.30;4.00;;;;;;;18.87;78.16;98972.50;5032276;28;39217;-72
2022/07/30 05:46:39;;;;;;;3.37;3.07;;;;;;;18.85;78.33;98974.50;5061897;28;41821;-73
2022/07/30 05:49:08;;;;;;;4.30;4.00;;;;;;;18.86;77.92;98973.50;5089950;28;42825;-71
2022/07/30 05:51:36;;;;;;;3.97;3.67;;;;;;;18.87;77.82;98972.50;5072801;28;43842;-72
2022/07/30 05:54:05;;;;;;;4.87;4.33;;;;;;;19.04;77.60;98964.69;5072896;28;39000;-73
2022/07/30 05:57:01;;;;;;;4.60;4.20;;;;;;;19.28;77.20;98973.94;5036417;28;40598;-74
2022/07/30 05:59:32;;;;;;;6.40;5.80;;;;;;;19.49;76.50;98965.66;5072754;28;41456;-72
2022/07/30 06:02:10;;;;;;;5.73;5.20;;;;;;;19.71;76.31;98964.38;5073067;28;42700;-71
2022/07/30 06:04:57;;;;;;;7.63;6.93;;;;;;;19.88;75.97;98968.97;5089809;28;38714;-72
2022/07/30 06:07:25;;;;;;;7.60;6.53;;;;;;;20.04;75.07;98973.63;5089795;28;41665;-73
2022/07/30 06:09:58;;;;;;;7.50;6.80;;;;;;;20.15;74.61;98970.75;5089306;28;43480;-71
2022/07/30 06:12:27;;;;;;;7.03;6.33;;;;;;;20.25;74.25;98970.66;5072662;28;42459;-71
2022/07/30 06:14:56;;;;;;;5.40;4.90;;;;;;;20.29;73.76;98974.72;5089740;28;41676;-74
2022/07/30 06:17:29;;;;;;;8.53;5.30;;;;;;;20.36;73.73;98974.00;5086689;28;42420;-70
2022/07/30 06:20:14;;;;;;;4.50;4.10;;;;;;;20.47;73.58;98974.75;5072371;28;42997;-75
2022/07/30 06:22:53;;;;;;;4.30;3.93;;;;;;;20.63;73.03;98975.72;5085840;28;43290;-73
2022/07/30 06:25:27;;;;;;;4.10;3.80;;;;;;;20.84;72.87;98985.28;5074674;28;40205;-75
2022/07/30 06:27:55;;;;;;;3.83;3.10;;;;;;;21.09;72.43;98982.59;5093057;28;41591;-72
2022/07/30 06:30:23;;;;;;;3.23;3.03;;;;;;;21.51;71.47;98993.44;5092861;28;43794;-73
2022/07/30 06:32:51;;;;;;;4.10;3.70;;;;;;;21.76;70.52;98980.88;5076004;28;41298;-75
2022/07/30 06:35:23;;;;;;;5.20;4.70;;;;;;;22.11;69.38;98984.41;5092781;28;41015;-74
2022/07/30 06:37:50;;;;;;;4.77;4.37;;;;;;;22.29;68.78;98981.53;5092668;28;42617;-71
2022/07/30 06:40:18;;;;;;;5.53;5.03;;;;;;;22.31;67.87;98976.84;5075723;28;41908;-72
2022/07/30 06:43:05;;;;;;;4.23;3.83;;;;;;;22.21;68.03;98961.66;5092588;28;44490;-74
2022/07/30 06:45:48;;;;;;;4.10;3.73;;;;;;;22.46;67.58;98978.69;5092051;28;39928;-74
2022/07/30 06:48:24;;;;;;;4.60;4.20;;;;;;;22.50;67.58;98969.22;5089615;28;42701;-71
2022/07/30 06:50:55;;;;;;;3.87;3.57;;;;;;;22.52;67.46;98980.72;5075181;28;42758;-74
2022/07/30 06:53:24;;;;;;;3.87;3.57;;;;;;;22.68;67.50;98989.81;5075627;28;42246;-71
2022/07/30 06:56:18;;;;;;;4.37;4.07;;;;;;;22.98;66.30;98989.16;5067974;28;39771;-74
2022/07/30 06:59:06;;;;;;;4.90;4.50;;;;;;;23.20;65.53;98993.84;5075172;28;41610;-72
2022/07/30 07:01:53;;;;;;;3.63;3.33;;;;;;;23.69;63.98;99007.22;5092611;28;43404;-76
2022/07/30 07:04:22;;;;;;;4.50;4.10;;;;;;;24.10;62.09;99017.84;5091951;28;42338;-76
2022/07/30 07:06:52;;;;;;;3.47;3.17;;;;;;;24.23;61.56;99012.72;5092486;28;40911;-75
2022/07/30 07:09:28;;;;;;;4.50;4.17;;;;;;;24.29;61.63;99017.41;5090303;28;42714;-74
2022/07/30 07:12:22;;;;;;;3.73;3.43;;;;;;;24.46;61.09;99019.00;5092178;28;42800;-72
2022/07/30 07:14:49;;;;;;;4.33;3.93;;;;;;;24.78;60.74;99020.59;5091911;28;42446;-75
2022/07/30 07:17:18;;;;;;;4.13;3.83;;;;;;;24.80;59.30;99020.41;5092478;28;39972;-74
2022/07/30 07:19:58;;;;;;;4.77;4.33;;;;;;;24.75;59.56;99022.81;5091532;28;42562;-76
2022/07/30 07:22:28;;;;;;;4.87;3.47;;;;;;;24.78;59.74;99022.47;5091968;28;42448;-72
2022/07/30 07:24:56;;;;;;;3.70;3.40;;;;;;;25.08;58.93;99029.69;5093066;28;43459;-74
2022/07/30 07:27:28;;;;;;;4.07;3.70;;;;;;;25.57;58.30;99023.72;5089273;28;40513;-75
2022/07/30 07:29:59;;;;;;;3.17;2.90;;;;;;;25.87;57.26;99041.69;5089809;28;41795;-73
2022/07/30 07:32:27;;;;;;;4.40;4.00;;;;;;;26.27;56.18;99042.19;5075075;28;42256;-72
2022/07/30 07:34:55;;;;;;;4.27;3.87;;;;;;;26.62;55.06;99049.47;5092267;28;42266;-74
2022/07/30 07:37:22;;;;;;;4.90;4.50;;;;;;;26.74;53.96;99045.22;5092937;28;39917;-75
2022/07/30 07:39:52;;;;;;;5.10;4.60;;;;;;;26.83;53.67;99052.19;5091839;28;41703;-74
2022/07/30 07:42:19;;;;;;;5.43;4.93;;;;;;;27.09;53.14;99048.06;5091860;28;43424;-71
2022/07/30 07:44:48;;;;;;;7.27;5.20;;;;;;;27.08;52.52;99049.09;5074431;28;41333;-72
2022/07/30 07:47:16;;;;;;;4.77;4.37;;;;;;;27.06;53.01;99038.44;5092975;28;40139;-72
2022/07/30 07:49:55;;;;;;;5.70;5.20;;;;;;;27.23;52.19;99038.97;5089750;28;41823;-72
2022/07/30 07:52:23;;;;;;;5.93;5.17;;;;;;;27.51;52.30;99042.50;5088383;28;42761;-75
2022/07/30 07:54:53;;;;;;;5.67;5.10;;;;;;;27.74;51.56;99052.31;5091239;28;42409;-72
2022/07/30 07:57:21;;;;;;;5.60;5.10;;;;;;;28.09;50.65;99058.53;5091552;28;40168;-75
2022/07/30 07:59:50;;;;;;;6.00;5.40;;;;;;;28.31;49.68;99071.03;5091362;28;42660;-72
2022/07/30 08:02:25;;;;;;;6.17;5.57;;;;;;;28.14;49.42;99072.41;5074373;28;41534;-73
2022/07/30 08:05:05;;;;;;;4.90;4.40;;;;;;;27.81;49.75;99066.81;5089517;28;42508;-73
2022/07/30 08:07:52;;;;;;;5.40;4.90;;;;;;;27.52;50.66;99065.97;5088666;28;40095;-74
2022/07/30 08:10:56;;;;;;;4.90;4.50;;;;;;;27.36;51.08;99062.69;5049852;28;41749;-73
2022/07/30 08:13:59;;;;;;;5.50;5.00;;;;;;;27.23;51.41;99060.72;5092120;28;42343;-73
2022/07/30 08:16:36;;;;;;;4.00;3.70;;;;;;;27.95;50.44;99065.81;5090355;28;42371;-73
2022/07/30 08:19:33;;;;;;;3.93;3.53;;;;;;;28.74;48.57;99066.09;5082737;28;39818;-74
2022/07/30 08:22:12;;;;;;;4.33;3.93;;;;;;;28.90;47.93;99073.94;5087937;28;41799;-74
2022/07/30 08:24:40;;;;;;;4.40;4.00;;;;;;;29.15;47.40;99074.16;5092095;28;42717;-73
2022/07/30 08:27:10;;;;;;;5.17;4.00;;;;;;;29.35;46.43;99078.75;5074266;28;41085;-74
2022/07/30 08:29:38;;;;;;;3.93;3.53;;;;;;;30.23;45.29;99089.13;5090803;28;41163;-72
2022/07/30 08:32:06;;;;;;;3.90;3.60;;;;;;;31.10;43.06;99094.97;5091239;28;41812;-74
2022/07/30 08:34:36;;;;;;;3.43;3.23;;;;;;;31.65;41.36;99104.22;5088575;28;43716;-72
2022/07/30 08:37:04;;;;;;;4.13;3.80;;;;;;;32.12;40.86;99106.25;5073820;28;42700;-72
2022/07/30 08:39:32;;;;;;;3.23;3.03;;;;;;;32.75;39.94;99113.28;5074061;28;40259;-71
2022/07/30 08:42:00;;;;;;;4.20;3.80;;;;;;;33.21;38.88;99112.59;5090997;28;42509;-72
2022/07/30 08:44:30;;;;;;;3.40;3.10;;;;;;;33.90;37.70;99119.25;5073738;28;42871;-73
2022/07/30 08:47:00;;;;;;;4.07;3.73;;;;;;;35.09;35.08;99134.13;5086931;28;42269;-73
2022/07/30 08:49:44;;;;;;;3.50;3.20;;;;;;;36.68;33.35;99147.34;5073481;28;40279;-74
2022/07/30 08:52:12;;;;;;;3.27;3.00;;;;;;;37.90;30.28;99163.19;5090871;28;42178;-74
2022/07/30 08:54:45;;;;;;;3.33;3.07;;;;;;;37.78;30.74;99154.25;5088346;28;42914;-75
2022/07/30 08:57:13;;;;;;;3.50;3.20;;;;;;;38.17;30.16;99159.53;5091982;28;43175;-73
2022/07/30 08:59:43;;;;;;;2.90;2.70;;;;;;;37.63;30.36;99159.66;5090611;28;40928;-73
2022/07/30 09:02:11;;;;;;;3.17;2.97;;;;;;;37.23;30.84;99149.06;5090504;28;42760;-75
2022/07/30 09:04:49;;;;;;;3.47;3.27;;;;;;;37.08;31.21;99146.13;5090544;28;41977;-75
2022/07/30 09:07:17;;;;;;;3.37;3.17;;;;;;;36.84;31.57;99129.06;5073627;28;43125;-74
2022/07/30 09:09:45;;;;;;;2.90;2.70;;;;;;;36.70;32.03;99134.16;5090061;28;41024;-73
2022/07/30 09:12:35;;;;;;;2.83;2.60;;;;;;;36.18;32.63;99141.97;5090352;28;41611;-74
2022/07/30 09:15:09;;;;;;;3.20;2.90;;;;;;;35.29;33.60;99123.50;5088425;28;42774;-74
2022/07/30 09:18:02;;;;;;;2.93;2.73;;;;;;;34.59;34.06;99132.06;5072645;28;41324;-73
2022/07/30 09:20:35;;;;;;;3.13;2.63;;;;;;;33.80;34.53;99124.50;5055401;28;38418;-74
2022/07/30 09:23:07;;;;;;;3.40;3.10;;;;;;;33.45;34.97;99121.72;5087275;28;43067;-73
2022/07/30 09:26:04;;;;;;;3.03;2.63;;;;;;;33.41;35.38;99120.50;5053048;28;43532;-74
2022/07/30 09:28:51;;;;;;;2.73;2.53;;;;;;;33.02;35.52;99111.81;5088426;28;42255;-73
2022/07/30 09:31:53;;;;;;;2.90;2.70;;;;;;;33.11;35.60;99113.16;5088705;28;39560;-73
2022/07/30 09:34:41;;;;;;;3.23;2.93;;;;;;;33.83;34.77;99119.38;5069142;28;41893;-75
2022/07/30 09:37:44;;;;;;;4.57;2.90;;;;;;;33.84;34.47;99121.06;5091531;28;42856;-73
2022/07/30 09:40:31;;;;;;;5.07;2.37;;;;;;;33.02;35.24;99103.56;5090170;28;42187;-75
2022/07/30 09:43:25;;;;;;;2.97;2.63;;;;;;;32.29;36.12;99117.44;5091355;28;40861;-75
2022/07/30 09:45:59;;;;;;;2.73;2.50;;;;;;;31.59;36.79;99116.88;5073244;28;41711;-74
2022/07/30 09:48:28;;;;;;;4.33;2.40;;;;;;;31.66;37.53;99111.34;5072931;28;44487;-74
2022/07/30 09:50:56;;;;;;;3.53;2.60;;;;;;;32.21;36.61;99115.00;5091052;28;42323;-76
2022/07/30 09:53:25;;;;;;;2.80;2.07;;;;;;;32.31;35.63;99131.75;5091316;28;40894;-73
2022/07/30 09:55:52;;;;;;;2.33;2.10;;;;;;;31.97;36.48;99126.84;5090970;28;41711;-75
2022/07/30 09:58:21;;;;;;;3.50;2.20;;;;;;;31.50;36.83;99118.22;5073085;28;42646;-73
2022/07/30 10:00:48;;;;;;;3.00;2.50;;;;;;;30.94;37.77;99113.56;5092490;28;42245;-73
2022/07/30 10:03:44;;;;;;;3.13;2.83;;;;;;;30.40;38.13;99110.50;5074169;28;39929;-74
2022/07/30 10:06:33;;;;;;;3.30;3.00;;;;;;;29.99;38.83;99108.94;5091332;28;42656;-75
2022/07/30 10:09:03;;;;;;;3.10;2.60;;;;;;;29.91;38.23;99109.16;5090660;28;43856;-73
2022/07/30 10:11:31;;;;;;;3.70;2.83;;;;;;;30.73;37.87;99105.72;5076453;28;42248;-74
2022/07/30 10:14:03;;;;;;;3.10;2.10;;;;;;;31.35;35.73;99115.81;5076509;28;40106;-75
2022/07/30 10:16:32;;;;;;;4.03;2.50;;;;;;;31.00;35.31;99117.31;5076206;28;41512;-73
2022/07/30 10:19:03;;;;;;;3.53;2.40;;;;;;;31.58;34.71;99120.66;5075763;28;42359;-75
2022/07/30 10:21:34;;;;;;;7.10;2.70;;;;;;;31.32;35.71;99109.94;5092866;28;41557;-75
2022/07/30 10:24:12;;;;;;;2.40;2.13;;;;;;;30.82;36.50;99114.47;5092597;28;40000;-73
2022/07/30 10:26:53;;;;;;;3.17;2.43;;;;;;;31.23;35.57;99114.88;5093093;28;41118;-75
2022/07/30 10:29:50;;;;;;;5.50;2.77;;;;;;;33.06;32.52;99129.50;5083638;28;42715;-74
2022/07/30 10:32:19;;;;;;;4.97;2.33;;;;;;;34.68;30.89;99142.66;5075645;28;41487;-74
2022/07/30 10:34:49;;;;;;;2.30;2.10;;;;;;;35.82;29.71;99144.22;5093857;28;41876;-75
2022/07/30 10:37:17;;;;;;;2.90;2.70;;;;;;;36.12;28.27;99156.75;5092391;28;41898;-75
2022/07/30 10:39:52;;;;;;;3.00;2.70;;;;;;;36.46;28.54;99149.28;5091554;28;42741;-74
2022/07/30 10:42:34;;;;;;;2.80;2.47;;;;;;;37.18;26.21;99160.06;5075643;28;43470;-75
2022/07/30 10:45:30;;;;;;;2.30;2.10;;;;;;;38.58;25.42;99172.47;5091866;28;39784;-76
2022/07/30 10:48:00;;;;;;;2.40;2.20;;;;;;;39.13;23.57;99168.25;5092513;28;42813;-76
2022/07/30 10:50:29;;;;;;;2.00;1.90;;;;;;;38.74;23.81;99170.59;5091922;28;43460;-74
2022/07/30 10:52:59;;;;;;;2.10;1.98;;;;;;;38.48;24.60;99155.78;5092552;28;42822;-77
2022/07/30 10:55:29;;;;;;;2.23;2.13;;;;;;;38.79;23.51;99160.38;5092279;28;40785;-74
2022/07/30 10:58:02;;;;;;;2.80;2.30;;;;;;;39.54;21.36;99173.88;5093422;28;42671;-74
2022/07/30 11:00:31;;;;;;;1.92;1.83;;;;;;;39.65;21.51;99139.47;5090975;28;42394;-75
2022/07/30 11:03:20;;;;;;;2.42;1.90;;;;;;;39.57;21.15;99176.06;5075085;28;41606;-73
2022/07/30 11:05:51;;;;;;;2.22;2.03;;;;;;;39.13;21.30;99173.78;5092376;28;39691;-73
2022/07/30 11:08:30;;;;;;;2.00;1.88;;;;;;;38.87;21.92;99170.09;5091932;28;41232;-76
2022/07/30 11:10:58;;;;;;;3.55;1.88;;;;;;;38.69;23.18;99156.75;5074615;28;42120;-75
2022/07/30 11:13:51;;;;;;;2.13;1.92;;;;;;;38.64;22.96;99163.09;5093367;28;42408;-74
2022/07/30 11:16:20;;;;;;;2.60;2.40;;;;;;;38.53;23.01;99158.63;5092464;28;40888;-74
2022/07/30 11:19:07;;;;;;;3.50;2.17;;;;;;;38.65;23.03;99153.69;5091829;28;42661;-76
2022/07/30 11:21:36;;;;;;;1.83;1.73;;;;;;;38.94;23.33;99142.16;5088910;28;43769;-73
2022/07/30 11:24:05;;;;;;;2.42;2.20;;;;;;;39.15;22.48;99143.88;5092276;28;42467;-75
2022/07/30 11:26:51;;;;;;;2.63;2.20;;;;;;;39.28;22.70;99148.88;5093184;28;41002;-74
2022/07/30 11:29:39;;;;;;;2.83;2.20;;;;;;;39.01;22.95;99142.72;5090183;28;41791;-76
2022/07/30 11:32:29;;;;;;;3.70;2.28;;;;;;;38.54;21.88;99152.00;5091825;28;41817;-76
2022/07/30 11:35:16;;;;;;;3.25;2.42;;;;;;;38.14;22.81;99137.91;5091509;28;42538;-76
2022/07/30 11:38:03;;;;;;;2.42;2.33;;;;;;;38.14;22.26;99132.38;5091742;28;40319;-75
2022/07/30 11:40:33;;;;;;;2.70;2.33;;;;;;;38.20;22.92;99136.84;5075057;28;40726;-74
2022/07/30 11:43:17;;;;;;;2.25;2.08;;;;;;;38.37;22.78;99131.94;5091460;28;43482;-73
2022/07/30 11:45:45;;;;;;;4.25;2.00;;;;;;;38.59;22.09;99121.53;5091583;28;42229;-73
2022/07/30 11:48:15;;;;;;;2.10;1.95;;;;;;;38.98;21.63;99140.50;5092660;28;39960;-73
2022/07/30 11:50:44;;;;;;;3.53;2.50;;;;;;;39.40;20.95;99140.28;5091997;28;42500;-74
2022/07/30 11:53:17;;;;;;;2.38;1.98;;;;;;;40.13;20.56;99130.53;5091298;28;41640;-73
2022/07/30 11:55:50;;;;;;;2.00;1.90;;;;;;;40.91;18.96;99163.31;5091622;28;42579;-74
2022/07/30 11:58:26;;;;;;;2.08;1.85;;;;;;;41.78;18.93;99136.56;5089619;28;39635;-74
2022/07/30 12:00:56;;;;;;;2.35;2.15;;;;;;;42.82;18.21;99152.66;5090896;28;42245;-75
2022/07/30 12:03:25;;;;;;;2.83;2.33;;;;;;;43.84;17.25;99166.69;5074112;28;41638;-75